• Join FlightAware (Why Join?)
  • Login
  • US Flag 
02:41AM EDT


 

Airport Tracker/Info


-or-


 

Live Flight TrackerFlight Track Log ✈ N897MB ✈ 14-May-2013 ✈ 8A6 - KSOP

Flight Track Log - Related Links

Times and Time Zones

All times are in EDT time to prevent confusion due to time zone crossing. See the N897MB flight status page for this flight to view local times or setup timezone preferences in your user account.

Time Position Orientation Groundspeed Altitude Reporting Facility
EDT Latitude Longitude Course Direction KTS MPH feet Rate Location/Type
08:56AM 35.2264 -80.5506 92° East 99 114 3,500  Level Atlanta Center
08:57AM 35.2256 -80.5200 92° East 100 115 3,500  Level Atlanta Center
08:58AM 35.2267 -80.4844 88° East 98 113 3,500  Level Atlanta Center
08:59AM 35.2258 -80.4564 92° East 99 114 3,500  Level Atlanta Center
09:00AM 35.2228 -80.4233 96° East 98 113 3,500  Level Atlanta Center
09:01AM 35.2175 -80.3881 100° East 101 116 3,600  Climbing Atlanta Center
09:02AM 35.2164 -80.3550 92° East 100 115 3,600  Level Atlanta Center
09:03AM 35.2114 -80.3197 100° East 100 115 3,600 -60 Level Atlanta Center
09:04AM 35.2122 -80.2817 88° East 102 117 3,500 -120 Descending Atlanta Center
09:06AM 35.2133 -80.2162 89° East  Level FlightAware Approximate
09:13AM 35.2199 -79.9142 87° East  Level FlightAware Approximate
09:14AM 35.2215 -79.8711 87° East  Level FlightAware Approximate
09:15AM 35.2230 -79.8280 87° East  Level FlightAware Approximate
09:16AM 35.2246 -79.7849 87° East  Level FlightAware Approximate
09:17AM 35.2261 -79.7417 87° East  Level FlightAware Approximate
09:18AM 35.2276 -79.6986 88° East  Level FlightAware Approximate
09:19AM 35.2291 -79.6555 88° East  Level FlightAware Approximate
09:20AM 35.2306 -79.6124 88° East  Level FlightAware Approximate
09:21AM 35.2321 -79.5692 88° East  Level FlightAware Approximate
09:22AM 35.2333 -79.5261 90° East  Level FlightAware Approximate
09:23AM 35.2333 -79.4829 90° East  Level FlightAware Approximate
09:24AM 35.2333 -79.4398 90° East  Level FlightAware Approximate
09:25AM 35.2333 -79.3966 90° East  Level FlightAware Approximate
09:26AM 35.2333 -79.3833 90° East  Level FlightAware Approximate
09:27AM 35.2380 -79.3883 90° East  Level Estimated
09:28AM 35.2333 -79.3833 90° East  Level FlightAware Approximate
09:29AM 35.2380 -79.3883 90° East  Level Estimated
09:30AM 35.2333 -79.3833 90° East  Level FlightAware Approximate
09:31AM 35.2380 -79.3883 90° East  Level Estimated